sensor_id;sensor_type;location;lat;lon;timestamp;temperature;humidity
35970;DHT22;22448;51.298;6.430;2023-04-25T00:02:01;5.80;99.90
35970;DHT22;22448;51.298;6.430;2023-04-25T00:04:30;5.80;99.90
35970;DHT22;22448;51.298;6.430;2023-04-25T00:07:00;5.90;99.90
35970;DHT22;22448;51.298;6.430;2023-04-25T00:09:31;5.90;99.90
35970;DHT22;22448;51.298;6.430;2023-04-25T00:11:58;6.00;99.90
35970;DHT22;22448;51.298;6.430;2023-04-25T00:14:25;6.00;99.90
35970;DHT22;22448;51.298;6.430;2023-04-25T00:16:52;6.10;99.90
35970;DHT22;22448;51.298;6.430;2023-04-25T00:19:20;6.10;99.90
35970;DHT22;22448;51.298;6.430;2023-04-25T00:21:47;6.10;99.90
35970;DHT22;22448;51.298;6.430;2023-04-25T00:24:14;6.10;99.90
35970;DHT22;22448;51.298;6.430;2023-04-25T00:26:42;6.10;99.90
35970;DHT22;22448;51.298;6.430;2023-04-25T00:29:09;6.10;99.90
35970;DHT22;22448;51.298;6.430;2023-04-25T00:31:37;6.20;99.90
35970;DHT22;22448;51.298;6.430;2023-04-25T00:34:04;6.10;99.90
35970;DHT22;22448;51.298;6.430;2023-04-25T00:36:31;6.20;99.90
35970;DHT22;22448;51.298;6.430;2023-04-25T00:38:58;6.20;99.90
35970;DHT22;22448;51.298;6.430;2023-04-25T00:41:26;6.20;99.90
35970;DHT22;22448;51.298;6.430;2023-04-25T00:43:54;6.20;99.90
35970;DHT22;22448;51.298;6.430;2023-04-25T00:46:22;6.20;99.90
35970;DHT22;22448;51.298;6.430;2023-04-25T00:48:49;6.20;99.90
35970;DHT22;22448;51.298;6.430;2023-04-25T00:51:20;6.20;99.90
35970;DHT22;22448;51.298;6.430;2023-04-25T00:53:49;6.20;99.90
35970;DHT22;22448;51.298;6.430;2023-04-25T00:56:17;6.20;99.90
35970;DHT22;22448;51.298;6.430;2023-04-25T00:58:44;6.20;99.90
35970;DHT22;22448;51.298;6.430;2023-04-25T01:01:11;6.10;99.90
35970;DHT22;22448;51.298;6.430;2023-04-25T01:03:40;6.10;99.90
35970;DHT22;22448;51.298;6.430;2023-04-25T01:06:09;6.10;99.90
35970;DHT22;22448;51.298;6.430;2023-04-25T01:08:38;6.10;99.90
35970;DHT22;22448;51.298;6.430;2023-04-25T01:11:06;6.10;99.90
35970;DHT22;22448;51.298;6.430;2023-04-25T01:13:34;6.10;99.90
35970;DHT22;22448;51.298;6.430;2023-04-25T01:16:02;6.10;99.90
35970;DHT22;22448;51.298;6.430;2023-04-25T01:18:29;6.20;99.90
35970;DHT22;22448;51.298;6.430;2023-04-25T01:21:06;6.20;99.90
35970;DHT22;22448;51.298;6.430;2023-04-25T01:23:33;6.20;99.90
35970;DHT22;22448;51.298;6.430;2023-04-25T01:26:01;6.20;99.90
35970;DHT22;22448;51.298;6.430;2023-04-25T01:28:28;6.20;99.90
35970;DHT22;22448;51.298;6.430;2023-04-25T01:30:56;6.30;99.90
35970;DHT22;22448;51.298;6.430;2023-04-25T01:33:24;6.30;99.90
35970;DHT22;22448;51.298;6.430;2023-04-25T01:35:51;6.30;99.90
35970;DHT22;22448;51.298;6.430;2023-04-25T01:38:19;6.30;99.90
35970;DHT22;22448;51.298;6.430;2023-04-25T01:40:46;6.30;99.90
35970;DHT22;22448;51.298;6.430;2023-04-25T01:43:18;6.30;99.90
35970;DHT22;22448;51.298;6.430;2023-04-25T01:45:45;6.30;99.90
35970;DHT22;22448;51.298;6.430;2023-04-25T01:48:13;6.30;99.90
35970;DHT22;22448;51.298;6.430;2023-04-25T01:50:43;6.30;99.90
35970;DHT22;22448;51.298;6.430;2023-04-25T01:53:13;6.30;99.90
35970;DHT22;22448;51.298;6.430;2023-04-25T01:55:42;6.30;99.90
35970;DHT22;22448;51.298;6.430;2023-04-25T01:58:13;6.30;99.90
35970;DHT22;22448;51.298;6.430;2023-04-25T02:00:58;6.40;99.90
35970;DHT22;22448;51.298;6.430;2023-04-25T02:03:31;6.40;99.90
35970;DHT22;22448;51.298;6.430;2023-04-25T02:05:59;6.30;99.90
35970;DHT22;22448;51.298;6.430;2023-04-25T02:08:28;6.30;99.90
35970;DHT22;22448;51.298;6.430;2023-04-25T02:10:55;6.30;99.90
35970;DHT22;22448;51.298;6.430;2023-04-25T02:13:23;6.20;99.90
35970;DHT22;22448;51.298;6.430;2023-04-25T02:16:12;6.20;99.90
35970;DHT22;22448;51.298;6.430;2023-04-25T02:18:40;6.20;99.90
35970;DHT22;22448;51.298;6.430;2023-04-25T02:21:07;6.10;99.90
35970;DHT22;22448;51.298;6.430;2023-04-25T02:23:34;6.10;99.90
35970;DHT22;22448;51.298;6.430;2023-04-25T02:26:01;6.00;99.90
35970;DHT22;22448;51.298;6.430;2023-04-25T02:28:29;6.00;99.90
35970;DHT22;22448;51.298;6.430;2023-04-25T02:30:56;6.00;99.90
35970;DHT22;22448;51.298;6.430;2023-04-25T02:33:23;5.90;99.90
35970;DHT22;22448;51.298;6.430;2023-04-25T02:35:51;5.80;99.90
35970;DHT22;22448;51.298;6.430;2023-04-25T02:38:21;5.70;99.90
35970;DHT22;22448;51.298;6.430;2023-04-25T02:40:48;5.60;99.90
35970;DHT22;22448;51.298;6.430;2023-04-25T02:43:15;5.60;99.90
35970;DHT22;22448;51.298;6.430;2023-04-25T02:45:43;5.50;99.90
35970;DHT22;22448;51.298;6.430;2023-04-25T02:48:11;5.50;99.90
35970;DHT22;22448;51.298;6.430;2023-04-25T02:50:38;5.40;99.90
35970;DHT22;22448;51.298;6.430;2023-04-25T02:53:05;5.40;99.90
35970;DHT22;22448;51.298;6.430;2023-04-25T02:55:38;5.40;99.90
35970;DHT22;22448;51.298;6.430;2023-04-25T02:58:05;5.40;99.90
35970;DHT22;22448;51.298;6.430;2023-04-25T03:00:42;5.40;99.90
35970;DHT22;22448;51.298;6.430;2023-04-25T03:03:09;5.30;99.90
35970;DHT22;22448;51.298;6.430;2023-04-25T03:05:36;5.30;99.90
35970;DHT22;22448;51.298;6.430;2023-04-25T03:08:03;5.30;99.90
35970;DHT22;22448;51.298;6.430;2023-04-25T03:10:32;5.40;99.90
35970;DHT22;22448;51.298;6.430;2023-04-25T03:13:03;5.40;99.90
35970;DHT22;22448;51.298;6.430;2023-04-25T03:15:30;5.30;99.90
35970;DHT22;22448;51.298;6.430;2023-04-25T03:17:58;5.30;99.90
35970;DHT22;22448;51.298;6.430;2023-04-25T03:20:25;5.30;99.90
35970;DHT22;22448;51.298;6.430;2023-04-25T03:22:51;5.20;99.90
35970;DHT22;22448;51.298;6.430;2023-04-25T03:25:18;5.20;99.90
35970;DHT22;22448;51.298;6.430;2023-04-25T03:27:45;5.10;99.90
35970;DHT22;22448;51.298;6.430;2023-04-25T03:30:12;5.10;99.90
35970;DHT22;22448;51.298;6.430;2023-04-25T03:32:41;5.10;99.90
35970;DHT22;22448;51.298;6.430;2023-04-25T03:35:08;5.10;99.90
35970;DHT22;22448;51.298;6.430;2023-04-25T03:37:35;5.10;99.90
35970;DHT22;22448;51.298;6.430;2023-04-25T03:40:03;5.20;99.90
35970;DHT22;22448;51.298;6.430;2023-04-25T03:42:50;5.20;99.90
35970;DHT22;22448;51.298;6.430;2023-04-25T03:45:17;5.10;99.90
35970;DHT22;22448;51.298;6.430;2023-04-25T03:47:44;5.10;99.90
35970;DHT22;22448;51.298;6.430;2023-04-25T03:50:11;5.10;99.90
35970;DHT22;22448;51.298;6.430;2023-04-25T03:52:38;5.00;99.90
35970;DHT22;22448;51.298;6.430;2023-04-25T03:55:06;4.90;99.90
35970;DHT22;22448;51.298;6.430;2023-04-25T03:57:33;4.90;99.90
35970;DHT22;22448;51.298;6.430;2023-04-25T04:00:00;4.80;99.90
35970;DHT22;22448;51.298;6.430;2023-04-25T04:02:38;4.80;99.90
35970;DHT22;22448;51.298;6.430;2023-04-25T04:05:10;4.70;99.90
35970;DHT22;22448;51.298;6.430;2023-04-25T04:07:44;4.70;99.90
35970;DHT22;22448;51.298;6.430;2023-04-25T04:10:12;4.60;99.90
35970;DHT22;22448;51.298;6.430;2023-04-25T04:12:39;4.60;99.90
35970;DHT22;22448;51.298;6.430;2023-04-25T04:15:07;4.60;99.90
35970;DHT22;22448;51.298;6.430;2023-04-25T04:17:35;4.50;99.90
35970;DHT22;22448;51.298;6.430;2023-04-25T04:20:02;4.50;99.90
35970;DHT22;22448;51.298;6.430;2023-04-25T04:22:31;4.50;99.90
35970;DHT22;22448;51.298;6.430;2023-04-25T04:25:04;4.50;99.90
35970;DHT22;22448;51.298;6.430;2023-04-25T04:27:51;4.50;99.90
35970;DHT22;22448;51.298;6.430;2023-04-25T04:30:47;4.50;99.90
35970;DHT22;22448;51.298;6.430;2023-04-25T04:33:14;4.50;99.90
35970;DHT22;22448;51.298;6.430;2023-04-25T04:35:45;4.60;99.90
35970;DHT22;22448;51.298;6.430;2023-04-25T04:38:14;4.70;99.90
35970;DHT22;22448;51.298;6.430;2023-04-25T04:40:42;4.70;99.90
35970;DHT22;22448;51.298;6.430;2023-04-25T04:43:18;4.80;99.90
35970;DHT22;22448;51.298;6.430;2023-04-25T04:46:01;4.90;99.90
35970;DHT22;22448;51.298;6.430;2023-04-25T04:48:32;5.00;99.90
35970;DHT22;22448;51.298;6.430;2023-04-25T04:51:19;5.10;99.90
35970;DHT22;22448;51.298;6.430;2023-04-25T04:53:53;5.10;99.90
35970;DHT22;22448;51.298;6.430;2023-04-25T04:56:29;5.20;99.90
35970;DHT22;22448;51.298;6.430;2023-04-25T04:59:16;5.30;99.90
35970;DHT22;22448;51.298;6.430;2023-04-25T05:02:06;5.40;99.90
35970;DHT22;22448;51.298;6.430;2023-04-25T05:04:48;5.60;99.90
35970;DHT22;22448;51.298;6.430;2023-04-25T05:07:34;5.80;99.90
35970;DHT22;22448;51.298;6.430;2023-04-25T05:10:20;6.00;99.90
35970;DHT22;22448;51.298;6.430;2023-04-25T05:12:56;6.20;99.90
35970;DHT22;22448;51.298;6.430;2023-04-25T05:15:43;6.30;99.90
35970;DHT22;22448;51.298;6.430;2023-04-25T05:18:21;6.50;99.90
35970;DHT22;22448;51.298;6.430;2023-04-25T05:21:18;6.60;99.90
35970;DHT22;22448;51.298;6.430;2023-04-25T05:24:03;6.70;99.90
35970;DHT22;22448;51.298;6.430;2023-04-25T05:26:33;6.60;99.90
35970;DHT22;22448;51.298;6.430;2023-04-25T05:29:22;6.70;99.90
35970;DHT22;22448;51.298;6.430;2023-04-25T05:32:24;6.80;99.90
35970;DHT22;22448;51.298;6.430;2023-04-25T05:34:52;6.70;99.90
35970;DHT22;22448;51.298;6.430;2023-04-25T05:37:24;6.90;99.90
35970;DHT22;22448;51.298;6.430;2023-04-25T05:39:58;7.50;99.90
35970;DHT22;22448;51.298;6.430;2023-04-25T05:42:44;7.90;99.90
35970;DHT22;22448;51.298;6.430;2023-04-25T05:45:37;7.90;99.90
35970;DHT22;22448;51.298;6.430;2023-04-25T05:48:10;7.90;99.90
35970;DHT22;22448;51.298;6.430;2023-04-25T05:50:55;7.80;99.90
35970;DHT22;22448;51.298;6.430;2023-04-25T05:53:42;7.80;99.90
35970;DHT22;22448;51.298;6.430;2023-04-25T05:56:09;7.90;99.90
35970;DHT22;22448;51.298;6.430;2023-04-25T05:58:36;8.10;99.90
35970;DHT22;22448;51.298;6.430;2023-04-25T06:01:03;8.50;99.90
35970;DHT22;22448;51.298;6.430;2023-04-25T06:03:31;9.00;99.90
35970;DHT22;22448;51.298;6.430;2023-04-25T06:05:59;10.00;99.90
35970;DHT22;22448;51.298;6.430;2023-04-25T06:08:26;10.00;99.90
35970;DHT22;22448;51.298;6.430;2023-04-25T06:10:53;9.80;99.90
35970;DHT22;22448;51.298;6.430;2023-04-25T06:13:22;9.30;99.90
35970;DHT22;22448;51.298;6.430;2023-04-25T06:15:49;8.90;99.90
35970;DHT22;22448;51.298;6.430;2023-04-25T06:18:16;8.70;99.90
35970;DHT22;22448;51.298;6.430;2023-04-25T06:20:43;8.70;99.90
35970;DHT22;22448;51.298;6.430;2023-04-25T06:23:10;8.90;99.90
35970;DHT22;22448;51.298;6.430;2023-04-25T06:25:59;9.30;99.90
35970;DHT22;22448;51.298;6.430;2023-04-25T06:28:27;9.60;99.90
35970;DHT22;22448;51.298;6.430;2023-04-25T06:30:54;10.30;99.90
35970;DHT22;22448;51.298;6.430;2023-04-25T06:33:21;12.60;99.90
35970;DHT22;22448;51.298;6.430;2023-04-25T06:35:49;14.00;99.90
35970;DHT22;22448;51.298;6.430;2023-04-25T06:38:20;15.90;99.90
35970;DHT22;22448;51.298;6.430;2023-04-25T06:40:50;17.00;99.90
35970;DHT22;22448;51.298;6.430;2023-04-25T06:43:18;18.10;97.80
35970;DHT22;22448;51.298;6.430;2023-04-25T06:45:48;17.70;97.50
35970;DHT22;22448;51.298;6.430;2023-04-25T06:48:16;17.80;96.40
35970;DHT22;22448;51.298;6.430;2023-04-25T06:50:43;18.10;96.10
35970;DHT22;22448;51.298;6.430;2023-04-25T06:53:11;18.20;95.80
35970;DHT22;22448;51.298;6.430;2023-04-25T06:55:40;19.10;95.70
35970;DHT22;22448;51.298;6.430;2023-04-25T06:58:15;19.90;93.80
35970;DHT22;22448;51.298;6.430;2023-04-25T07:01:14;20.20;92.60
35970;DHT22;22448;51.298;6.430;2023-04-25T07:03:41;20.90;91.30
35970;DHT22;22448;51.298;6.430;2023-04-25T07:06:14;21.30;89.00
35970;DHT22;22448;51.298;6.430;2023-04-25T07:08:41;20.40;88.90
35970;DHT22;22448;51.298;6.430;2023-04-25T07:11:08;20.60;89.20
35970;DHT22;22448;51.298;6.430;2023-04-25T07:13:36;18.30;90.70
35970;DHT22;22448;51.298;6.430;2023-04-25T07:16:04;18.40;92.10
35970;DHT22;22448;51.298;6.430;2023-04-25T07:18:33;19.70;90.70
35970;DHT22;22448;51.298;6.430;2023-04-25T07:21:01;19.10;90.70
35970;DHT22;22448;51.298;6.430;2023-04-25T07:23:30;17.80;90.70
35970;DHT22;22448;51.298;6.430;2023-04-25T07:26:00;15.30;93.80
35970;DHT22;22448;51.298;6.430;2023-04-25T07:28:28;14.00;95.30
35970;DHT22;22448;51.298;6.430;2023-04-25T07:30:55;13.80;97.80
35970;DHT22;22448;51.298;6.430;2023-04-25T07:33:24;14.30;97.60
35970;DHT22;22448;51.298;6.430;2023-04-25T07:35:52;16.20;96.40
35970;DHT22;22448;51.298;6.430;2023-04-25T07:38:19;16.10;95.40
35970;DHT22;22448;51.298;6.430;2023-04-25T07:40:48;17.10;93.70
35970;DHT22;22448;51.298;6.430;2023-04-25T07:43:16;18.30;93.60
35970;DHT22;22448;51.298;6.430;2023-04-25T07:45:51;19.20;92.50
35970;DHT22;22448;51.298;6.430;2023-04-25T07:48:19;19.90;90.90
35970;DHT22;22448;51.298;6.430;2023-04-25T07:50:47;19.60;89.90
35970;DHT22;22448;51.298;6.430;2023-04-25T07:53:15;19.40;90.10
35970;DHT22;22448;51.298;6.430;2023-04-25T07:55:48;19.90;90.10
35970;DHT22;22448;51.298;6.430;2023-04-25T07:58:20;19.60;89.40
35970;DHT22;22448;51.298;6.430;2023-04-25T08:00:53;19.80;89.20
35970;DHT22;22448;51.298;6.430;2023-04-25T08:03:36;20.30;89.10
35970;DHT22;22448;51.298;6.430;2023-04-25T08:06:09;19.40;87.20
35970;DHT22;22448;51.298;6.430;2023-04-25T08:08:47;19.10;88.10
35970;DHT22;22448;51.298;6.430;2023-04-25T08:11:17;17.40;89.70
35970;DHT22;22448;51.298;6.430;2023-04-25T08:13:44;17.00;90.10
35970;DHT22;22448;51.298;6.430;2023-04-25T08:16:12;17.10;91.50
35970;DHT22;22448;51.298;6.430;2023-04-25T08:18:39;15.10;92.10
35970;DHT22;22448;51.298;6.430;2023-04-25T08:21:07;13.60;93.70
35970;DHT22;22448;51.298;6.430;2023-04-25T08:23:35;12.50;96.00
35970;DHT22;22448;51.298;6.430;2023-04-25T08:26:20;11.60;97.50
35970;DHT22;22448;51.298;6.430;2023-04-25T08:28:49;10.70;99.90
35970;DHT22;22448;51.298;6.430;2023-04-25T08:31:17;10.10;99.90
35970;DHT22;22448;51.298;6.430;2023-04-25T08:33:57;9.80;99.90
35970;DHT22;22448;51.298;6.430;2023-04-25T08:36:30;10.00;99.90
35970;DHT22;22448;51.298;6.430;2023-04-25T08:39:26;10.00;99.90
35970;DHT22;22448;51.298;6.430;2023-04-25T08:42:12;10.10;99.90
35970;DHT22;22448;51.298;6.430;2023-04-25T08:44:39;10.10;99.90
35970;DHT22;22448;51.298;6.430;2023-04-25T08:47:07;10.60;99.90
35970;DHT22;22448;51.298;6.430;2023-04-25T08:49:45;11.60;99.90
35970;DHT22;22448;51.298;6.430;2023-04-25T08:52:14;12.40;99.90
35970;DHT22;22448;51.298;6.430;2023-04-25T08:54:48;12.80;98.70
35970;DHT22;22448;51.298;6.430;2023-04-25T08:57:17;13.00;98.60
35970;DHT22;22448;51.298;6.430;2023-04-25T08:59:47;13.30;99.00
35970;DHT22;22448;51.298;6.430;2023-04-25T09:02:15;12.60;98.80
35970;DHT22;22448;51.298;6.430;2023-04-25T09:04:48;12.10;99.50
35970;DHT22;22448;51.298;6.430;2023-04-25T09:07:16;11.50;99.90
35970;DHT22;22448;51.298;6.430;2023-04-25T09:09:49;11.10;99.90
35970;DHT22;22448;51.298;6.430;2023-04-25T09:12:19;10.80;99.90
35970;DHT22;22448;51.298;6.430;2023-04-25T09:17:59;10.40;99.90
35970;DHT22;22448;51.298;6.430;2023-04-25T09:20:41;10.40;99.90
35970;DHT22;22448;51.298;6.430;2023-04-25T09:23:28;10.60;99.90
35970;DHT22;22448;51.298;6.430;2023-04-25T09:25:55;10.90;99.90
35970;DHT22;22448;51.298;6.430;2023-04-25T09:28:24;11.10;99.90
35970;DHT22;22448;51.298;6.430;2023-04-25T09:30:58;11.20;99.90
35970;DHT22;22448;51.298;6.430;2023-04-25T09:33:36;11.20;99.90
35970;DHT22;22448;51.298;6.430;2023-04-25T09:36:07;11.10;99.50
35970;DHT22;22448;51.298;6.430;2023-04-25T09:38:47;11.20;99.90
35970;DHT22;22448;51.298;6.430;2023-04-25T09:41:26;11.60;99.90
35970;DHT22;22448;51.298;6.430;2023-04-25T09:43:59;11.80;99.80
35970;DHT22;22448;51.298;6.430;2023-04-25T09:46:34;11.80;99.10
35970;DHT22;22448;51.298;6.430;2023-04-25T09:49:16;11.70;99.00
35970;DHT22;22448;51.298;6.430;2023-04-25T09:52:15;11.40;98.70
35970;DHT22;22448;51.298;6.430;2023-04-25T09:54:53;11.20;99.90
35970;DHT22;22448;51.298;6.430;2023-04-25T09:57:27;11.10;99.90
35970;DHT22;22448;51.298;6.430;2023-04-25T09:59:56;11.00;99.90
35970;DHT22;22448;51.298;6.430;2023-04-25T10:02:28;10.90;99.90
35970;DHT22;22448;51.298;6.430;2023-04-25T10:05:01;10.80;99.90
35970;DHT22;22448;51.298;6.430;2023-04-25T10:07:37;10.90;99.90
35970;DHT22;22448;51.298;6.430;2023-04-25T10:10:13;10.80;99.90
35970;DHT22;22448;51.298;6.430;2023-04-25T10:12:40;10.80;99.90
35970;DHT22;22448;51.298;6.430;2023-04-25T10:15:09;10.90;99.90
35970;DHT22;22448;51.298;6.430;2023-04-25T10:17:38;10.90;99.90
35970;DHT22;22448;51.298;6.430;2023-04-25T10:20:07;11.00;99.90
35970;DHT22;22448;51.298;6.430;2023-04-25T10:22:47;11.20;99.90
35970;DHT22;22448;51.298;6.430;2023-04-25T10:25:15;11.90;99.90
35970;DHT22;22448;51.298;6.430;2023-04-25T10:27:42;12.40;99.50
35970;DHT22;22448;51.298;6.430;2023-04-25T10:30:13;12.70;97.70
35970;DHT22;22448;51.298;6.430;2023-04-25T10:32:42;12.90;97.40
35970;DHT22;22448;51.298;6.430;2023-04-25T10:35:24;12.70;96.20
35970;DHT22;22448;51.298;6.430;2023-04-25T10:38:18;12.60;94.60
35970;DHT22;22448;51.298;6.430;2023-04-25T10:41:06;12.50;96.40
35970;DHT22;22448;51.298;6.430;2023-04-25T10:43:35;12.20;95.60
35970;DHT22;22448;51.298;6.430;2023-04-25T10:46:19;12.50;96.30
35970;DHT22;22448;51.298;6.430;2023-04-25T10:48:57;12.90;96.50
35970;DHT22;22448;51.298;6.430;2023-04-25T10:51:29;13.50;96.70
35970;DHT22;22448;51.298;6.430;2023-04-25T10:54:17;13.60;96.30
35970;DHT22;22448;51.298;6.430;2023-04-25T10:56:44;13.70;95.50
35970;DHT22;22448;51.298;6.430;2023-04-25T10:59:16;13.80;96.40
35970;DHT22;22448;51.298;6.430;2023-04-25T11:01:48;13.60;94.30
35970;DHT22;22448;51.298;6.430;2023-04-25T11:04:23;13.10;94.40
35970;DHT22;22448;51.298;6.430;2023-04-25T11:09:24;12.10;97.00
35970;DHT22;22448;51.298;6.430;2023-04-25T11:11:58;11.80;96.70
35970;DHT22;22448;51.298;6.430;2023-04-25T11:14:26;11.40;97.30
35970;DHT22;22448;51.298;6.430;2023-04-25T11:16:57;11.20;97.70
35970;DHT22;22448;51.298;6.430;2023-04-25T11:19:29;11.00;98.00
35970;DHT22;22448;51.298;6.430;2023-04-25T11:21:57;10.90;98.40
35970;DHT22;22448;51.298;6.430;2023-04-25T11:24:32;10.90;99.10
35970;DHT22;22448;51.298;6.430;2023-04-25T11:26:59;11.00;97.90
35970;DHT22;22448;51.298;6.430;2023-04-25T11:29:30;11.10;98.30
35970;DHT22;22448;51.298;6.430;2023-04-25T11:31:58;11.10;98.20
35970;DHT22;22448;51.298;6.430;2023-04-25T11:34:26;11.40;99.20
35970;DHT22;22448;51.298;6.430;2023-04-25T11:36:53;11.60;99.90
35970;DHT22;22448;51.298;6.430;2023-04-25T11:39:20;11.70;99.50
35970;DHT22;22448;51.298;6.430;2023-04-25T11:41:48;11.70;99.20
35970;DHT22;22448;51.298;6.430;2023-04-25T11:44:18;11.60;99.00
35970;DHT22;22448;51.298;6.430;2023-04-25T11:46:46;11.60;99.10
35970;DHT22;22448;51.298;6.430;2023-04-25T11:49:14;11.60;98.90
35970;DHT22;22448;51.298;6.430;2023-04-25T11:51:43;11.60;99.90
35970;DHT22;22448;51.298;6.430;2023-04-25T11:54:11;11.70;99.90
35970;DHT22;22448;51.298;6.430;2023-04-25T11:56:43;11.70;99.70
35970;DHT22;22448;51.298;6.430;2023-04-25T11:59:10;11.90;99.70
35970;DHT22;22448;51.298;6.430;2023-04-25T12:01:40;11.80;98.80
35970;DHT22;22448;51.298;6.430;2023-04-25T12:04:22;11.80;99.30
35970;DHT22;22448;51.298;6.430;2023-04-25T12:06:54;11.90;99.50
35970;DHT22;22448;51.298;6.430;2023-04-25T12:09:31;12.20;98.60
35970;DHT22;22448;51.298;6.430;2023-04-25T12:11:59;12.60;97.60
35970;DHT22;22448;51.298;6.430;2023-04-25T12:14:34;12.90;96.50
35970;DHT22;22448;51.298;6.430;2023-04-25T12:17:03;12.90;94.80
35970;DHT22;22448;51.298;6.430;2023-04-25T12:19:35;13.10;92.60
35970;DHT22;22448;51.298;6.430;2023-04-25T12:22:03;13.40;95.00
35970;DHT22;22448;51.298;6.430;2023-04-25T12:24:45;13.80;93.70
35970;DHT22;22448;51.298;6.430;2023-04-25T12:27:14;14.10;91.00
35970;DHT22;22448;51.298;6.430;2023-04-25T12:29:53;14.00;90.70
35970;DHT22;22448;51.298;6.430;2023-04-25T12:32:21;13.60;91.90
35970;DHT22;22448;51.298;6.430;2023-04-25T12:34:49;12.90;93.40
35970;DHT22;22448;51.298;6.430;2023-04-25T12:37:16;12.20;95.70
35970;DHT22;22448;51.298;6.430;2023-04-25T12:39:43;11.80;97.70
35970;DHT22;22448;51.298;6.430;2023-04-25T12:42:10;11.50;97.00
35970;DHT22;22448;51.298;6.430;2023-04-25T12:44:40;11.30;95.40
35970;DHT22;22448;51.298;6.430;2023-04-25T12:47:07;11.10;93.90
35970;DHT22;22448;51.298;6.430;2023-04-25T12:49:35;11.10;92.70
35970;DHT22;22448;51.298;6.430;2023-04-25T12:52:02;11.10;93.40
35970;DHT22;22448;51.298;6.430;2023-04-25T12:54:29;11.10;93.50
35970;DHT22;22448;51.298;6.430;2023-04-25T12:56:56;11.10;93.80
35970;DHT22;22448;51.298;6.430;2023-04-25T12:59:24;11.10;95.00
35970;DHT22;22448;51.298;6.430;2023-04-25T13:01:51;11.00;94.30
35970;DHT22;22448;51.298;6.430;2023-04-25T13:04:18;11.10;95.10
35970;DHT22;22448;51.298;6.430;2023-04-25T13:06:48;11.10;95.20
35970;DHT22;22448;51.298;6.430;2023-04-25T13:09:14;11.00;94.40
35970;DHT22;22448;51.298;6.430;2023-04-25T13:11:42;11.00;95.70
35970;DHT22;22448;51.298;6.430;2023-04-25T13:14:09;11.00;96.40
35970;DHT22;22448;51.298;6.430;2023-04-25T13:16:36;11.10;96.70
35970;DHT22;22448;51.298;6.430;2023-04-25T13:19:03;11.10;97.30
35970;DHT22;22448;51.298;6.430;2023-04-25T13:21:30;11.30;98.00
35970;DHT22;22448;51.298;6.430;2023-04-25T13:23:59;11.60;97.90
35970;DHT22;22448;51.298;6.430;2023-04-25T13:26:26;11.70;97.80
35970;DHT22;22448;51.298;6.430;2023-04-25T13:28:53;11.80;97.80
35970;DHT22;22448;51.298;6.430;2023-04-25T13:31:20;11.80;98.10
35970;DHT22;22448;51.298;6.430;2023-04-25T13:33:48;11.70;97.80
35970;DHT22;22448;51.298;6.430;2023-04-25T13:36:15;11.50;98.10
35970;DHT22;22448;51.298;6.430;2023-04-25T13:38:42;11.60;99.50
35970;DHT22;22448;51.298;6.430;2023-04-25T13:41:10;11.80;98.90
35970;DHT22;22448;51.298;6.430;2023-04-25T13:43:42;12.00;98.30
35970;DHT22;22448;51.298;6.430;2023-04-25T13:46:09;12.10;98.80
35970;DHT22;22448;51.298;6.430;2023-04-25T13:48:56;12.40;97.90
35970;DHT22;22448;51.298;6.430;2023-04-25T13:51:37;12.80;98.20
35970;DHT22;22448;51.298;6.430;2023-04-25T13:54:04;13.30;98.70
35970;DHT22;22448;51.298;6.430;2023-04-25T13:56:31;13.20;97.50
35970;DHT22;22448;51.298;6.430;2023-04-25T13:58:58;13.00;97.50
35970;DHT22;22448;51.298;6.430;2023-04-25T14:01:26;12.90;98.10
35970;DHT22;22448;51.298;6.430;2023-04-25T14:03:54;12.70;97.50
35970;DHT22;22448;51.298;6.430;2023-04-25T14:06:22;12.30;96.50
35970;DHT22;22448;51.298;6.430;2023-04-25T14:08:50;12.20;97.20
35970;DHT22;22448;51.298;6.430;2023-04-25T14:11:17;12.00;96.20
35970;DHT22;22448;51.298;6.430;2023-04-25T14:13:45;11.80;96.10
35970;DHT22;22448;51.298;6.430;2023-04-25T14:16:12;11.60;96.50
35970;DHT22;22448;51.298;6.430;2023-04-25T14:18:39;11.50;97.10
35970;DHT22;22448;51.298;6.430;2023-04-25T14:21:06;11.20;96.60
35970;DHT22;22448;51.298;6.430;2023-04-25T14:23:33;11.00;97.50
35970;DHT22;22448;51.298;6.430;2023-04-25T14:26:01;11.00;97.60
35970;DHT22;22448;51.298;6.430;2023-04-25T14:28:28;10.90;98.10
35970;DHT22;22448;51.298;6.430;2023-04-25T14:30:55;11.20;98.10
35970;DHT22;22448;51.298;6.430;2023-04-25T14:33:23;11.60;98.00
35970;DHT22;22448;51.298;6.430;2023-04-25T14:35:50;12.00;97.50
35970;DHT22;22448;51.298;6.430;2023-04-25T14:38:17;12.20;97.40
35970;DHT22;22448;51.298;6.430;2023-04-25T14:40:43;12.20;95.10
35970;DHT22;22448;51.298;6.430;2023-04-25T14:43:10;12.20;93.70
35970;DHT22;22448;51.298;6.430;2023-04-25T14:45:37;12.50;93.90
35970;DHT22;22448;51.298;6.430;2023-04-25T14:48:04;12.80;92.60
35970;DHT22;22448;51.298;6.430;2023-04-25T14:50:31;12.80;93.20
35970;DHT22;22448;51.298;6.430;2023-04-25T14:52:58;12.70;93.50
35970;DHT22;22448;51.298;6.430;2023-04-25T14:55:27;12.40;94.90
35970;DHT22;22448;51.298;6.430;2023-04-25T14:57:55;12.10;96.10
35970;DHT22;22448;51.298;6.430;2023-04-25T15:00:23;12.00;97.50
35970;DHT22;22448;51.298;6.430;2023-04-25T15:02:51;12.00;97.30
35970;DHT22;22448;51.298;6.430;2023-04-25T15:05:19;11.80;97.30
35970;DHT22;22448;51.298;6.430;2023-04-25T15:07:46;11.90;97.10
35970;DHT22;22448;51.298;6.430;2023-04-25T15:10:14;12.00;96.20
35970;DHT22;22448;51.298;6.430;2023-04-25T15:12:42;12.10;95.40
35970;DHT22;22448;51.298;6.430;2023-04-25T15:15:14;12.10;95.20
35970;DHT22;22448;51.298;6.430;2023-04-25T15:17:51;11.90;95.00
35970;DHT22;22448;51.298;6.430;2023-04-25T15:20:18;11.90;95.00
35970;DHT22;22448;51.298;6.430;2023-04-25T15:22:45;11.90;93.70
35970;DHT22;22448;51.298;6.430;2023-04-25T15:25:12;11.80;93.60
35970;DHT22;22448;51.298;6.430;2023-04-25T15:27:39;12.00;94.60
35970;DHT22;22448;51.298;6.430;2023-04-25T15:30:12;11.90;93.60
35970;DHT22;22448;51.298;6.430;2023-04-25T15:32:42;11.90;93.60
35970;DHT22;22448;51.298;6.430;2023-04-25T15:35:09;11.70;93.90
35970;DHT22;22448;51.298;6.430;2023-04-25T15:37:37;11.50;94.40
35970;DHT22;22448;51.298;6.430;2023-04-25T15:40:06;11.40;95.30
35970;DHT22;22448;51.298;6.430;2023-04-25T15:42:48;11.40;95.40
35970;DHT22;22448;51.298;6.430;2023-04-25T15:45:24;11.30;95.40
35970;DHT22;22448;51.298;6.430;2023-04-25T15:47:54;11.10;96.30
35970;DHT22;22448;51.298;6.430;2023-04-25T15:50:21;11.00;96.50
35970;DHT22;22448;51.298;6.430;2023-04-25T15:52:49;10.90;96.90
35970;DHT22;22448;51.298;6.430;2023-04-25T15:55:17;10.70;97.30
35970;DHT22;22448;51.298;6.430;2023-04-25T15:57:44;10.60;97.60
35970;DHT22;22448;51.298;6.430;2023-04-25T16:00:13;10.50;97.40
35970;DHT22;22448;51.298;6.430;2023-04-25T16:02:42;10.50;98.20
35970;DHT22;22448;51.298;6.430;2023-04-25T16:05:10;10.60;97.60
35970;DHT22;22448;51.298;6.430;2023-04-25T16:07:39;10.70;98.60